createdAt,value
2019-04-05T00:02:01.185Z,23.63
2019-04-05T00:04:31.540Z,17.87
2019-04-05T00:07:02.283Z,18.43
2019-04-05T00:09:32.823Z,17.23
2019-04-05T00:12:03.106Z,23.03
2019-04-05T00:14:33.922Z,20.90
2019-04-05T00:17:06.022Z,18.73
2019-04-05T00:19:37.328Z,16.20
2019-04-05T00:22:07.743Z,17.07
2019-04-05T00:24:38.398Z,13.90
2019-04-05T00:27:08.736Z,13.23
2019-04-05T00:29:40.158Z,14.37
2019-04-05T00:32:10.615Z,16.00
2019-04-05T00:34:41.442Z,13.63
2019-04-05T00:37:12.164Z,12.80
2019-04-05T00:39:42.900Z,23.63
2019-04-05T00:42:13.604Z,12.57
2019-04-05T00:44:44.300Z,20.47
2019-04-05T00:47:14.582Z,19.10
2019-04-05T00:49:45.094Z,18.33
2019-04-05T00:52:15.838Z,16.23
2019-04-05T00:54:46.223Z,14.07
2019-04-05T00:57:16.630Z,15.80
2019-04-05T00:59:47.558Z,14.90
2019-04-05T01:02:18.032Z,11.57
2019-04-05T01:04:48.620Z,11.97
2019-04-05T01:07:18.913Z,11.17
2019-04-05T01:09:49.512Z,10.70
2019-04-05T01:12:22.185Z,13.70
2019-04-05T01:14:53.609Z,14.23
2019-04-05T01:17:25.227Z,14.40
2019-04-05T01:19:59.928Z,11.67
2019-04-05T01:22:32.078Z,14.40
2019-04-05T01:25:03.107Z,12.37
2019-04-05T01:27:35.172Z,11.77
2019-04-05T01:30:06.956Z,12.40
2019-04-05T01:32:37.261Z,11.27
2019-04-05T01:35:08.341Z,11.63
2019-04-05T01:37:39.008Z,15.73
2019-04-05T01:40:11.381Z,8.77
2019-04-05T01:42:42.635Z,18.60
2019-04-05T01:45:13.165Z,22.43
2019-04-05T01:47:43.869Z,11.13
2019-04-05T01:50:14.628Z,10.27
2019-04-05T01:52:45.403Z,16.63
2019-04-05T01:55:16.565Z,11.57
2019-04-05T01:57:47.226Z,20.00
2019-04-05T02:00:18.063Z,13.87
2019-04-05T02:02:48.791Z,14.97
2019-04-05T02:05:19.922Z,14.60
2019-04-05T02:07:50.209Z,18.30
2019-04-05T02:10:21.102Z,13.43
2019-04-05T02:12:51.697Z,12.27
2019-04-05T02:15:27.582Z,16.87
2019-04-05T02:17:58.897Z,16.93
2019-04-05T02:20:29.366Z,15.93
2019-04-05T02:23:00.145Z,14.53
2019-04-05T02:25:30.859Z,16.00
2019-04-05T02:28:01.141Z,14.70
2019-04-05T02:30:31.799Z,13.63
2019-04-05T02:33:02.541Z,15.70
2019-04-05T02:35:32.921Z,15.37
2019-04-05T02:38:03.240Z,16.87
2019-04-05T02:40:35.784Z,21.83
2019-04-05T02:43:07.639Z,15.23
2019-04-05T02:45:40.187Z,19.13
2019-04-05T02:48:13.679Z,21.47
2019-04-05T02:50:47.042Z,17.37
2019-04-05T02:53:20.121Z,14.87
2019-04-05T02:55:51.306Z,27.47
2019-04-05T02:58:22.399Z,15.70
2019-04-05T03:00:53.851Z,18.23
2019-04-05T03:03:24.804Z,18.40
2019-04-05T03:05:56.074Z,19.53
2019-04-05T03:08:27.484Z,18.67
2019-04-05T03:11:10.819Z,21.87
2019-04-05T03:13:52.289Z,12.57
2019-04-05T03:16:39.468Z,18.07
2019-04-05T03:19:05.418Z,21.73
2019-04-05T03:21:39.037Z,22.80
2019-04-05T03:24:12.942Z,19.67
2019-04-05T03:26:46.930Z,18.67
2019-04-05T03:29:17.738Z,17.70
2019-04-05T03:31:48.518Z,19.30
2019-04-05T03:34:19.190Z,16.63
2019-04-05T03:36:51.817Z,21.70
2019-04-05T03:39:23.788Z,20.63
2019-04-05T03:41:55.065Z,21.63
2019-04-05T03:44:27.072Z,23.00
2019-04-05T03:46:58.083Z,17.90
2019-04-05T03:49:29.972Z,17.97
2019-04-05T03:52:02.119Z,20.87
2019-04-05T03:54:33.068Z,26.17
2019-04-05T03:57:03.852Z,24.13
2019-04-05T03:59:34.486Z,26.53
2019-04-05T04:02:05.106Z,21.83
2019-04-05T04:04:35.742Z,22.40
2019-04-05T04:07:06.990Z,25.50
2019-04-05T04:09:37.370Z,20.53
2019-04-05T04:12:07.892Z,30.63
2019-04-05T04:14:38.910Z,19.87
2019-04-05T04:17:12.603Z,26.30
2019-04-05T04:19:41.558Z,18.37
2019-04-05T04:22:31.378Z,22.60
2019-04-05T04:25:02.055Z,32.27
2019-04-05T04:27:32.485Z,27.13
2019-04-05T04:30:03.094Z,23.00
2019-04-05T04:32:34.651Z,41.80
2019-04-05T04:35:05.188Z,29.70
2019-04-05T04:37:36.475Z,26.27
2019-04-05T04:40:07.331Z,25.63
2019-04-05T04:42:39.057Z,33.80
2019-04-05T04:45:12.349Z,29.53
2019-04-05T04:47:42.176Z,23.30
2019-04-05T04:50:13.085Z,29.30
2019-04-05T04:52:45.647Z,27.17
2019-04-05T04:55:16.148Z,29.27
2019-04-05T04:57:47.883Z,35.23
2019-04-05T05:00:19.034Z,18.30
2019-04-05T05:02:49.678Z,33.93
2019-04-05T05:05:21.118Z,23.33
2019-04-05T05:07:52.272Z,27.03
2019-04-05T05:10:22.648Z,24.07
2019-04-05T05:12:53.224Z,28.30
2019-04-05T05:15:27.110Z,19.23
2019-04-05T05:17:58.722Z,25.03
2019-04-05T05:20:29.212Z,17.73
2019-04-05T05:23:00.149Z,22.47
2019-04-05T05:25:30.997Z,20.53
2019-04-05T05:28:02.908Z,24.27
2019-04-05T05:30:33.593Z,23.83
2019-04-05T05:33:04.665Z,20.70
2019-04-05T05:35:35.575Z,30.77
2019-04-05T05:38:05.992Z,19.40
2019-04-05T05:40:36.403Z,22.33
2019-04-05T05:43:07.276Z,33.93
2019-04-05T05:45:37.657Z,23.13
2019-04-05T05:48:08.484Z,19.43
2019-04-05T05:50:39.266Z,21.27
2019-04-05T05:53:09.856Z,24.80
2019-04-05T05:55:40.644Z,17.27
2019-04-05T05:58:10.968Z,25.67
2019-04-05T06:00:41.387Z,33.67
2019-04-05T06:03:13.183Z,26.77
2019-04-05T06:05:43.488Z,18.20
2019-04-05T06:08:13.805Z,22.53
2019-04-05T06:10:44.539Z,20.77
2019-04-05T06:13:15.056Z,15.47
2019-04-05T06:15:45.347Z,18.20
2019-04-05T06:18:16.073Z,17.73
2019-04-05T06:20:46.954Z,20.90
2019-04-05T06:23:17.271Z,19.73
2019-04-05T06:25:47.921Z,28.63
2019-04-05T06:28:18.253Z,16.77
2019-04-05T06:30:49.117Z,21.43
2019-04-05T06:33:30.986Z,16.57
2019-04-05T06:35:51.876Z,17.23
2019-04-05T06:38:22.686Z,19.33
2019-04-05T06:40:53.065Z,28.17
2019-04-05T06:43:23.487Z,17.43
2019-04-05T06:45:54.318Z,19.87
2019-04-05T06:48:24.900Z,18.17
2019-04-05T06:50:55.165Z,13.37
2019-04-05T06:53:25.737Z,13.27
2019-04-05T06:55:59.497Z,18.80
2019-04-05T06:58:29.573Z,23.93
2019-04-05T07:01:00.349Z,19.23
2019-04-05T07:03:30.844Z,16.83
2019-04-05T07:06:01.537Z,18.20
2019-04-05T07:08:32.251Z,36.60
2019-04-05T07:11:02.985Z,21.87
2019-04-05T07:13:33.566Z,16.47
2019-04-05T07:16:04.353Z,17.33
2019-04-05T07:18:36.310Z,13.87
2019-04-05T07:21:06.915Z,22.47
2019-04-05T07:23:37.529Z,19.03
2019-04-05T07:26:07.905Z,15.97
2019-04-05T07:28:38.239Z,17.67
2019-04-05T07:31:08.887Z,19.40
2019-04-05T07:33:39.449Z,19.73
2019-04-05T07:36:10.042Z,21.87
2019-04-05T07:38:40.377Z,19.73
2019-04-05T07:41:10.670Z,16.40
2019-04-05T07:43:41.242Z,29.60
2019-04-05T07:46:11.699Z,17.57
2019-04-05T07:48:44.943Z,18.03
2019-04-05T07:51:14.437Z,19.73
2019-04-05T07:53:44.950Z,30.13
2019-04-05T07:56:15.227Z,20.10
2019-04-05T07:58:46.384Z,18.53
2019-04-05T08:01:17.155Z,16.53
2019-04-05T08:03:47.710Z,18.13
2019-04-05T08:06:18.087Z,21.17
2019-04-05T08:08:56.997Z,21.77
2019-04-05T08:11:30.526Z,18.93
2019-04-05T08:14:02.668Z,21.90
2019-04-05T08:16:33.011Z,17.27
2019-04-05T08:19:03.847Z,28.97
2019-04-05T08:21:34.582Z,17.77
2019-04-05T08:24:05.031Z,21.50
2019-04-05T08:26:36.638Z,20.77
2019-04-05T08:29:07.633Z,20.00
2019-04-05T08:31:38.030Z,21.60
2019-04-05T08:34:08.648Z,17.90
2019-04-05T08:36:39.449Z,18.53
2019-04-05T08:39:11.131Z,21.20
2019-04-05T08:41:41.423Z,17.53
2019-04-05T08:44:12.417Z,22.40
2019-04-05T08:46:42.732Z,26.17
2019-04-05T08:49:13.207Z,20.90
2019-04-05T08:51:43.852Z,34.10
2019-04-05T08:54:14.365Z,24.10
2019-04-05T08:56:44.657Z,25.17
2019-04-05T08:59:15.543Z,17.17
2019-04-05T09:01:46.157Z,20.00
2019-04-05T09:04:16.589Z,15.27
2019-04-05T09:06:47.048Z,24.23
2019-04-05T09:09:17.397Z,20.10
2019-04-05T09:11:48.098Z,20.40
2019-04-05T09:14:20.832Z,18.60
2019-04-05T09:16:50.692Z,23.10
2019-04-05T09:19:23.824Z,23.80
2019-04-05T09:21:53.685Z,20.23
2019-04-05T09:24:24.012Z,18.77
2019-04-05T09:26:54.877Z,19.53
2019-04-05T09:29:25.659Z,20.03
2019-04-05T09:31:55.960Z,15.83
2019-04-05T09:34:26.507Z,26.83
2019-04-05T09:36:56.879Z,19.33
2019-04-05T09:39:27.228Z,18.17
2019-04-05T09:41:57.823Z,20.67
2019-04-05T09:44:28.331Z,19.60
2019-04-05T09:46:58.905Z,22.97
2019-04-05T09:49:36.752Z,15.67
2019-04-05T09:52:01.914Z,19.07
2019-04-05T09:54:32.361Z,18.73
2019-04-05T09:57:02.972Z,16.97
2019-04-05T09:59:33.443Z,16.40
2019-04-05T10:02:03.754Z,21.40
2019-04-05T10:04:34.317Z,14.80
2019-04-05T10:07:05.691Z,19.33
2019-04-05T10:09:36.048Z,19.53
2019-04-05T10:12:06.504Z,23.73
2019-04-05T10:14:37.174Z,25.60
2019-04-05T10:17:07.798Z,15.63
2019-04-05T10:19:49.217Z,13.87
2019-04-05T10:22:10.498Z,15.43
2019-04-05T10:24:41.182Z,14.93
2019-04-05T10:27:11.499Z,24.50
2019-04-05T10:29:41.841Z,26.13
2019-04-05T10:32:12.542Z,16.60
2019-04-05T10:34:42.987Z,17.47
2019-04-05T10:37:13.312Z,17.40
2019-04-05T10:39:44.106Z,26.27
2019-04-05T10:42:31.172Z,21.20
2019-04-05T10:45:01.842Z,23.13
2019-04-05T10:47:32.187Z,17.97
2019-04-05T10:50:03.722Z,14.80
2019-04-05T10:52:34.622Z,12.50
2019-04-05T10:55:05.708Z,18.97
2019-04-05T10:57:36.240Z,22.53
2019-04-05T11:00:10.060Z,18.03
2019-04-05T11:02:40.541Z,14.67
2019-04-05T11:05:11.139Z,16.67
2019-04-05T11:07:41.779Z,31.77
2019-04-05T11:10:13.620Z,22.07
2019-04-05T11:12:44.018Z,20.73
2019-04-05T11:15:15.258Z,17.17
2019-04-05T11:17:45.790Z,13.37
2019-04-05T11:20:23.825Z,17.93
2019-04-05T11:22:50.088Z,16.10
2019-04-05T11:25:21.281Z,20.67
2019-04-05T11:27:53.257Z,17.30
2019-04-05T11:30:41.124Z,20.20
2019-04-05T11:33:11.618Z,19.07
2019-04-05T11:35:42.156Z,20.03
2019-04-05T11:38:14.610Z,15.63
2019-04-05T11:40:46.629Z,20.27
2019-04-05T11:43:18.339Z,21.47
2019-04-05T11:45:50.822Z,20.33
2019-04-05T11:48:21.673Z,21.10
2019-04-05T11:50:52.430Z,20.73
2019-04-05T11:53:22.941Z,28.80
2019-04-05T11:55:53.527Z,31.17
2019-04-05T11:58:24.321Z,22.90
2019-04-05T12:01:23.622Z,18.20
2019-04-05T12:03:54.405Z,21.30
2019-04-05T12:06:25.719Z,30.83
2019-04-05T12:08:56.051Z,18.80
2019-04-05T12:11:26.339Z,24.57
2019-04-05T12:13:57.047Z,25.13
2019-04-05T12:16:27.624Z,23.40
2019-04-05T12:18:59.020Z,22.33
2019-04-05T12:21:29.846Z,19.10
2019-04-05T12:24:00.479Z,21.77
2019-04-05T12:26:34.485Z,18.13
2019-04-05T12:29:04.996Z,16.47
2019-04-05T12:31:35.267Z,17.80
2019-04-05T12:34:05.825Z,16.13
2019-04-05T12:36:36.563Z,18.10
2019-04-05T12:39:08.639Z,24.47
2019-04-05T12:41:40.864Z,17.73
2019-04-05T12:44:15.257Z,20.97
2019-04-05T12:46:45.839Z,21.20
2019-04-05T12:49:15.958Z,20.83
2019-04-05T12:51:46.751Z,20.70
2019-04-05T12:54:17.140Z,22.17
2019-04-05T12:56:47.678Z,20.43
2019-04-05T12:59:18.362Z,19.27
2019-04-05T13:01:48.657Z,23.93
2019-04-05T13:04:20.672Z,24.33
2019-04-05T13:06:53.010Z,26.17
2019-04-05T13:09:24.667Z,24.03
2019-04-05T13:11:57.403Z,19.00
2019-04-05T13:14:27.722Z,18.80
2019-04-05T13:17:01.701Z,16.67
2019-04-05T13:19:30.625Z,20.23
2019-04-05T13:22:02.870Z,16.80
2019-04-05T13:24:34.464Z,17.93
2019-04-05T13:27:05.055Z,17.77
2019-04-05T13:29:35.739Z,17.83
2019-04-05T13:32:06.006Z,18.90
2019-04-05T13:34:36.906Z,15.03
2019-04-05T13:37:19.597Z,18.67
2019-04-05T13:39:40.691Z,20.87
2019-04-05T13:42:11.361Z,20.37
2019-04-05T13:44:41.938Z,17.30
2019-04-05T13:47:12.278Z,20.93
2019-04-05T13:49:43.344Z,20.17
2019-04-05T13:52:13.896Z,23.17
2019-04-05T13:54:44.535Z,16.60
2019-04-05T13:57:14.871Z,22.93
2019-04-05T13:59:45.337Z,26.43
2019-04-05T14:02:15.714Z,17.70
2019-04-05T14:04:46.253Z,17.03
2019-04-05T14:07:16.556Z,16.87
2019-04-05T14:09:47.312Z,17.73
2019-04-05T14:12:18.070Z,17.20
2019-04-05T14:14:51.306Z,16.67
2019-04-05T14:17:20.528Z,23.50
2019-04-05T14:19:51.200Z,17.37
2019-04-05T14:22:22.484Z,17.47
2019-04-05T14:24:56.667Z,19.87
2019-04-05T14:27:26.712Z,24.13
2019-04-05T14:29:57.266Z,17.13
2019-04-05T14:32:27.823Z,20.10
2019-04-05T14:34:58.157Z,13.93
2019-04-05T14:37:28.550Z,15.47
2019-04-05T14:40:00.489Z,16.47
2019-04-05T14:42:30.851Z,21.97
2019-04-05T14:45:01.436Z,12.43
2019-04-05T14:47:32.005Z,16.30
2019-04-05T14:50:02.519Z,16.13
2019-04-05T14:52:33.964Z,18.10
2019-04-05T14:55:05.145Z,14.17
2019-04-05T14:57:36.571Z,21.63
2019-04-05T15:00:08.305Z,21.37
2019-04-05T15:02:39.128Z,13.47
2019-04-05T15:05:09.904Z,19.40
2019-04-05T15:07:40.543Z,13.33
2019-04-05T15:10:11.074Z,14.47
2019-04-05T15:12:41.397Z,19.27
2019-04-05T15:15:13.166Z,14.40
2019-04-05T15:17:48.237Z,13.73
2019-04-05T15:20:17.076Z,13.10
2019-04-05T15:22:47.722Z,12.60
2019-04-05T15:25:21.580Z,12.87
2019-04-05T15:27:55.400Z,11.57
2019-04-05T15:30:26.520Z,12.87
2019-04-05T15:32:58.708Z,18.47
2019-04-05T15:35:30.171Z,15.03
2019-04-05T15:38:02.149Z,11.57
2019-04-05T15:40:32.717Z,13.07
2019-04-05T15:43:03.503Z,13.33
2019-04-05T15:45:34.283Z,11.37
2019-04-05T15:48:04.570Z,15.67
2019-04-05T15:50:35.264Z,14.50
2019-04-05T15:53:05.653Z,12.17
2019-04-05T15:55:36.081Z,14.33
2019-04-05T15:58:06.465Z,21.07
2019-04-05T16:00:46.557Z,12.80
2019-04-05T16:03:17.166Z,12.40
2019-04-05T16:05:47.572Z,13.33
2019-04-05T16:08:19.549Z,15.23
2019-04-05T16:10:50.227Z,12.50
2019-04-05T16:13:20.980Z,11.67
2019-04-05T16:15:51.430Z,14.40
2019-04-05T16:18:21.926Z,11.63
2019-04-05T16:20:52.638Z,25.80
2019-04-05T16:23:22.950Z,14.43
2019-04-05T16:25:53.333Z,15.60
2019-04-05T16:28:24.091Z,14.30
2019-04-05T16:30:54.462Z,10.70
2019-04-05T16:33:24.956Z,21.57
2019-04-05T16:35:55.524Z,14.97
2019-04-05T16:38:26.023Z,14.57
2019-04-05T16:40:56.779Z,17.73
2019-04-05T16:43:27.370Z,20.53
2019-04-05T16:45:57.711Z,20.77
2019-04-05T16:48:28.607Z,21.17
2019-04-05T16:50:58.917Z,32.03
2019-04-05T16:53:29.433Z,19.87
2019-04-05T16:55:59.888Z,23.73
2019-04-05T16:58:30.305Z,28.33
2019-04-05T17:01:00.625Z,30.80
2019-04-05T17:03:32.181Z,23.37
2019-04-05T17:06:02.559Z,32.13
2019-04-05T17:08:32.979Z,21.87
2019-04-05T17:11:03.555Z,31.07
2019-04-05T17:13:34.174Z,22.67
2019-04-05T17:16:04.759Z,26.43
2019-04-05T17:18:35.183Z,25.30
2019-04-05T17:21:05.573Z,30.27
2019-04-05T17:23:36.089Z,22.20
2019-04-05T17:26:06.529Z,25.73
2019-04-05T17:28:37.165Z,19.47
2019-04-05T17:31:07.767Z,16.40
2019-04-05T17:33:38.130Z,25.93
2019-04-05T17:36:08.571Z,24.23
2019-04-05T17:38:39.136Z,27.73
2019-04-05T17:41:09.780Z,23.53
2019-04-05T17:43:40.465Z,28.80
2019-04-05T17:46:11.048Z,38.50
2019-04-05T17:48:41.806Z,22.03
2019-04-05T17:51:12.337Z,27.93
2019-04-05T17:53:42.688Z,30.00
2019-04-05T17:56:14.697Z,32.57
2019-04-05T17:58:45.423Z,33.23
2019-04-05T18:01:15.811Z,31.43
2019-04-05T18:03:46.318Z,31.00
2019-04-05T18:06:16.957Z,43.63
2019-04-05T18:08:47.251Z,36.60
2019-04-05T18:11:18.018Z,36.33
2019-04-05T18:13:48.551Z,31.67
2019-04-05T18:16:18.986Z,33.00
2019-04-05T18:18:49.339Z,61.57
2019-04-05T18:21:19.733Z,52.27
2019-04-05T18:23:50.363Z,48.67
2019-04-05T18:26:21.015Z,46.93
2019-04-05T18:28:52.265Z,60.37
2019-04-05T18:31:23.113Z,39.90
2019-04-05T18:33:53.812Z,41.77
2019-04-05T18:36:24.500Z,49.57
2019-04-05T18:38:54.859Z,46.43
2019-04-05T18:41:25.525Z,36.90
2019-04-05T18:43:55.884Z,45.10
2019-04-05T18:46:26.448Z,35.37
2019-04-05T18:48:57.056Z,38.80
2019-04-05T18:51:27.916Z,47.80
2019-04-05T18:53:58.312Z,42.43
2019-04-05T18:56:28.661Z,42.47
2019-04-05T18:58:59.199Z,42.53
2019-04-05T19:01:29.868Z,47.23
2019-04-05T19:04:00.209Z,53.13
2019-04-05T19:06:30.563Z,52.90
2019-04-05T19:09:01.123Z,48.47
2019-04-05T19:11:33.262Z,50.83
2019-04-05T19:14:03.559Z,45.30
2019-04-05T19:16:34.425Z,42.03
2019-04-05T19:19:05.167Z,43.43
2019-04-05T19:21:35.603Z,44.63
2019-04-05T19:24:06.298Z,44.90
2019-04-05T19:26:36.649Z,37.10
2019-04-05T19:29:07.309Z,36.90
2019-04-05T19:49:23.731Z,36.80
2019-04-05T19:51:54.183Z,34.07
2019-04-05T19:54:26.392Z,31.53
2019-04-05T19:56:56.891Z,29.03
2019-04-05T19:59:27.446Z,27.47
2019-04-05T20:01:57.779Z,28.53
2019-04-05T20:04:29.891Z,28.63
2019-04-05T20:07:00.659Z,35.83
2019-04-05T20:09:31.360Z,29.60
2019-04-05T20:12:03.526Z,27.87
2019-04-05T20:14:34.248Z,21.37
2019-04-05T20:17:04.810Z,29.27
2019-04-05T20:19:35.171Z,26.40
2019-04-05T20:22:05.774Z,24.97
2019-04-05T20:24:36.152Z,30.53
2019-04-05T20:27:06.598Z,27.37
2019-04-05T20:29:36.908Z,25.03
2019-04-05T20:32:08.041Z,28.70
2019-04-05T20:34:38.691Z,33.03
2019-04-05T20:37:09.099Z,27.63
2019-04-05T20:39:39.524Z,29.80
2019-04-05T20:42:10.242Z,30.90
2019-04-05T20:44:40.591Z,27.23
2019-04-05T20:47:11.010Z,32.67
2019-04-05T20:49:41.463Z,30.10
2019-04-05T20:52:11.910Z,36.97
2019-04-05T20:54:42.338Z,27.10
2019-04-05T20:57:15.426Z,26.13
2019-04-05T20:59:45.881Z,37.07
2019-04-05T21:02:16.899Z,29.53
2019-04-05T21:04:48.491Z,28.20
2019-04-05T21:07:18.879Z,26.77
2019-04-05T21:09:49.549Z,27.30
2019-04-05T21:12:19.955Z,25.00
2019-04-05T21:14:50.558Z,25.40
2019-04-05T21:17:21.548Z,22.30
2019-04-05T21:19:52.087Z,20.37
2019-04-05T21:22:22.618Z,24.80
2019-04-05T21:24:53.391Z,23.13
2019-04-05T21:27:24.083Z,21.90
2019-04-05T21:29:54.455Z,25.83
2019-04-05T21:32:25.069Z,22.67
2019-04-05T21:34:56.658Z,27.33
2019-04-05T21:37:26.989Z,25.43
2019-04-05T21:39:57.409Z,30.00
2019-04-05T21:42:27.821Z,23.83
2019-04-05T21:44:58.105Z,25.20
2019-04-05T21:47:28.492Z,25.53
2019-04-05T21:49:59.127Z,28.03
2019-04-05T21:52:29.450Z,27.33
2019-04-05T21:54:59.736Z,23.40
2019-04-05T21:57:31.507Z,25.50
2019-04-05T22:00:02.023Z,20.03
2019-04-05T22:02:34.518Z,27.10
2019-04-05T22:05:05.557Z,19.83
2019-04-05T22:07:35.883Z,22.83
2019-04-05T22:10:07.013Z,23.63
2019-04-05T22:12:37.469Z,22.20
2019-04-05T22:15:07.939Z,26.73
2019-04-05T22:17:38.503Z,26.73
2019-04-05T22:20:09.316Z,25.40
2019-04-05T22:22:39.634Z,23.53
2019-04-05T22:25:10.633Z,28.80
2019-04-05T22:27:41.297Z,28.33
2019-04-05T22:30:11.677Z,26.33
2019-04-05T22:32:42.618Z,24.13
2019-04-05T22:35:13.969Z,20.03
2019-04-05T22:37:44.550Z,20.63
2019-04-05T22:40:15.405Z,24.20
2019-04-05T22:42:45.727Z,21.97
2019-04-05T22:45:16.112Z,22.00
2019-04-05T22:47:46.497Z,20.70
2019-04-05T22:50:16.986Z,25.57
2019-04-05T22:52:47.504Z,23.90
2019-04-05T22:55:18.143Z,23.70
2019-04-05T22:57:48.624Z,25.67
2019-04-05T23:00:19.078Z,27.07
2019-04-05T23:02:53.243Z,25.87
2019-04-05T23:05:24.504Z,29.13
2019-04-05T23:07:55.206Z,24.63
2019-04-05T23:10:25.503Z,23.23
2019-04-05T23:12:56.173Z,19.40
2019-04-05T23:15:27.514Z,25.53
2019-04-05T23:17:57.797Z,21.30
2019-04-05T23:20:28.139Z,19.23
2019-04-05T23:22:58.806Z,26.07
2019-04-05T23:25:29.356Z,26.47
2019-04-05T23:27:59.729Z,23.37
2019-04-05T23:30:31.226Z,28.27
2019-04-05T23:33:01.562Z,25.43
2019-04-05T23:35:31.875Z,23.97
2019-04-05T23:38:02.594Z,28.07
2019-04-05T23:40:34.050Z,27.80
2019-04-05T23:43:04.887Z,29.40
2019-04-05T23:45:35.205Z,20.67
2019-04-05T23:48:05.512Z,23.50
2019-04-05T23:50:36.324Z,28.23
2019-04-05T23:53:06.603Z,28.07
2019-04-05T23:55:36.938Z,22.87
2019-04-05T23:58:07.724Z,25.23
